sensor_id;sensor_type;location;lat;lon;timestamp;P1;durP1;ratioP1;P2;durP2;ratioP2
12587;SDS011;6359;51.450;7.346;2022-08-21T00:01:34;20.10;;;10.45;;
12587;SDS011;6359;51.450;7.346;2022-08-21T00:04:03;18.35;;;10.45;;
12587;SDS011;6359;51.450;7.346;2022-08-21T00:06:31;17.42;;;10.35;;
12587;SDS011;6359;51.450;7.346;2022-08-21T00:08:58;16.67;;;10.20;;
12587;SDS011;6359;51.450;7.346;2022-08-21T00:11:25;17.77;;;10.48;;
12587;SDS011;6359;51.450;7.346;2022-08-21T00:13:53;18.55;;;9.90;;
12587;SDS011;6359;51.450;7.346;2022-08-21T00:16:20;16.73;;;11.27;;
12587;SDS011;6359;51.450;7.346;2022-08-21T00:18:49;19.52;;;11.18;;
12587;SDS011;6359;51.450;7.346;2022-08-21T00:21:16;18.75;;;10.90;;
12587;SDS011;6359;51.450;7.346;2022-08-21T00:23:43;18.92;;;11.13;;
12587;SDS011;6359;51.450;7.346;2022-08-21T00:26:10;14.65;;;10.30;;
12587;SDS011;6359;51.450;7.346;2022-08-21T00:28:37;20.42;;;11.38;;
12587;SDS011;6359;51.450;7.346;2022-08-21T00:31:04;15.05;;;10.25;;
12587;SDS011;6359;51.450;7.346;2022-08-21T00:33:32;17.52;;;10.60;;
12587;SDS011;6359;51.450;7.346;2022-08-21T00:36:00;17.15;;;10.93;;
12587;SDS011;6359;51.450;7.346;2022-08-21T00:38:27;17.02;;;11.30;;
12587;SDS011;6359;51.450;7.346;2022-08-21T00:40:56;16.42;;;9.95;;
12587;SDS011;6359;51.450;7.346;2022-08-21T00:43:25;17.42;;;10.25;;
12587;SDS011;6359;51.450;7.346;2022-08-21T00:45:54;15.73;;;9.85;;
12587;SDS011;6359;51.450;7.346;2022-08-21T00:48:22;13.77;;;10.32;;
12587;SDS011;6359;51.450;7.346;2022-08-21T00:50:50;18.65;;;10.30;;
12587;SDS011;6359;51.450;7.346;2022-08-21T00:53:23;13.98;;;9.30;;
12587;SDS011;6359;51.450;7.346;2022-08-21T00:55:51;22.00;;;11.88;;
12587;SDS011;6359;51.450;7.346;2022-08-21T00:58:19;25.02;;;11.05;;
12587;SDS011;6359;51.450;7.346;2022-08-21T01:00:47;18.00;;;11.05;;
12587;SDS011;6359;51.450;7.346;2022-08-21T01:03:16;18.52;;;10.23;;
12587;SDS011;6359;51.450;7.346;2022-08-21T01:05:45;23.50;;;10.93;;
12587;SDS011;6359;51.450;7.346;2022-08-21T01:08:13;17.73;;;10.35;;
12587;SDS011;6359;51.450;7.346;2022-08-21T01:10:44;19.27;;;9.77;;
12587;SDS011;6359;51.450;7.346;2022-08-21T01:13:13;17.52;;;10.52;;
12587;SDS011;6359;51.450;7.346;2022-08-21T01:15:43;17.98;;;10.15;;
12587;SDS011;6359;51.450;7.346;2022-08-21T01:18:13;19.17;;;10.35;;
12587;SDS011;6359;51.450;7.346;2022-08-21T01:20:41;21.42;;;10.75;;
12587;SDS011;6359;51.450;7.346;2022-08-21T01:23:12;17.40;;;10.55;;
12587;SDS011;6359;51.450;7.346;2022-08-21T01:25:39;14.43;;;9.75;;
12587;SDS011;6359;51.450;7.346;2022-08-21T01:28:09;18.85;;;10.65;;
12587;SDS011;6359;51.450;7.346;2022-08-21T01:30:39;15.88;;;9.27;;
12587;SDS011;6359;51.450;7.346;2022-08-21T01:33:08;20.75;;;9.90;;
12587;SDS011;6359;51.450;7.346;2022-08-21T01:35:35;13.00;;;8.55;;
12587;SDS011;6359;51.450;7.346;2022-08-21T01:38:02;12.95;;;8.23;;
12587;SDS011;6359;51.450;7.346;2022-08-21T01:40:30;19.33;;;8.20;;
12587;SDS011;6359;51.450;7.346;2022-08-21T01:42:57;13.40;;;7.88;;
12587;SDS011;6359;51.450;7.346;2022-08-21T01:45:24;12.80;;;7.90;;
12587;SDS011;6359;51.450;7.346;2022-08-21T01:47:51;12.15;;;8.23;;
12587;SDS011;6359;51.450;7.346;2022-08-21T01:50:18;15.77;;;8.73;;
12587;SDS011;6359;51.450;7.346;2022-08-21T01:52:46;16.88;;;8.07;;
12587;SDS011;6359;51.450;7.346;2022-08-21T01:55:14;13.75;;;7.63;;
12587;SDS011;6359;51.450;7.346;2022-08-21T01:57:44;14.43;;;8.50;;
12587;SDS011;6359;51.450;7.346;2022-08-21T02:00:13;12.02;;;7.70;;
12587;SDS011;6359;51.450;7.346;2022-08-21T02:02:42;14.80;;;8.88;;
12587;SDS011;6359;51.450;7.346;2022-08-21T02:05:10;16.92;;;7.72;;
12587;SDS011;6359;51.450;7.346;2022-08-21T02:07:38;18.88;;;8.98;;
12587;SDS011;6359;51.450;7.346;2022-08-21T02:10:07;16.48;;;8.20;;
12587;SDS011;6359;51.450;7.346;2022-08-21T02:12:35;14.70;;;8.15;;
12587;SDS011;6359;51.450;7.346;2022-08-21T02:15:05;15.63;;;8.35;;
12587;SDS011;6359;51.450;7.346;2022-08-21T02:17:37;10.40;;;7.60;;
12587;SDS011;6359;51.450;7.346;2022-08-21T02:20:05;20.30;;;9.07;;
12587;SDS011;6359;51.450;7.346;2022-08-21T02:22:33;17.13;;;9.30;;
12587;SDS011;6359;51.450;7.346;2022-08-21T02:25:00;17.00;;;9.20;;
12587;SDS011;6359;51.450;7.346;2022-08-21T02:27:27;16.90;;;8.77;;
12587;SDS011;6359;51.450;7.346;2022-08-21T02:29:55;14.75;;;8.98;;
12587;SDS011;6359;51.450;7.346;2022-08-21T02:32:24;15.57;;;9.18;;
12587;SDS011;6359;51.450;7.346;2022-08-21T02:34:51;15.65;;;9.63;;
12587;SDS011;6359;51.450;7.346;2022-08-21T02:37:18;15.43;;;9.35;;
12587;SDS011;6359;51.450;7.346;2022-08-21T02:39:45;21.00;;;9.82;;
12587;SDS011;6359;51.450;7.346;2022-08-21T02:42:13;17.23;;;8.73;;
12587;SDS011;6359;51.450;7.346;2022-08-21T02:44:39;13.70;;;9.15;;
12587;SDS011;6359;51.450;7.346;2022-08-21T02:47:06;18.80;;;9.68;;
12587;SDS011;6359;51.450;7.346;2022-08-21T02:49:35;21.92;;;10.52;;
12587;SDS011;6359;51.450;7.346;2022-08-21T02:52:02;18.65;;;10.13;;
12587;SDS011;6359;51.450;7.346;2022-08-21T02:54:30;21.48;;;10.20;;
12587;SDS011;6359;51.450;7.346;2022-08-21T02:56:57;18.10;;;9.90;;
12587;SDS011;6359;51.450;7.346;2022-08-21T02:59:24;15.07;;;9.60;;
12587;SDS011;6359;51.450;7.346;2022-08-21T03:01:51;16.98;;;9.90;;
12587;SDS011;6359;51.450;7.346;2022-08-21T03:04:19;18.58;;;10.25;;
12587;SDS011;6359;51.450;7.346;2022-08-21T03:06:47;17.63;;;9.55;;
12587;SDS011;6359;51.450;7.346;2022-08-21T03:09:14;15.25;;;9.55;;
12587;SDS011;6359;51.450;7.346;2022-08-21T03:11:41;17.85;;;9.45;;
12587;SDS011;6359;51.450;7.346;2022-08-21T03:14:08;22.27;;;10.43;;
12587;SDS011;6359;51.450;7.346;2022-08-21T03:16:35;18.33;;;8.88;;
12587;SDS011;6359;51.450;7.346;2022-08-21T03:19:03;14.25;;;9.50;;
12587;SDS011;6359;51.450;7.346;2022-08-21T03:21:30;13.30;;;9.25;;
12587;SDS011;6359;51.450;7.346;2022-08-21T03:23:58;16.52;;;10.23;;
12587;SDS011;6359;51.450;7.346;2022-08-21T03:26:25;15.98;;;9.30;;
12587;SDS011;6359;51.450;7.346;2022-08-21T03:28:52;18.20;;;9.90;;
12587;SDS011;6359;51.450;7.346;2022-08-21T03:31:19;21.27;;;10.13;;
12587;SDS011;6359;51.450;7.346;2022-08-21T03:33:46;19.50;;;10.35;;
12587;SDS011;6359;51.450;7.346;2022-08-21T03:36:13;20.15;;;10.75;;
12587;SDS011;6359;51.450;7.346;2022-08-21T03:38:41;18.45;;;12.15;;
12587;SDS011;6359;51.450;7.346;2022-08-21T03:41:09;21.25;;;11.43;;
12587;SDS011;6359;51.450;7.346;2022-08-21T03:43:36;16.40;;;11.18;;
12587;SDS011;6359;51.450;7.346;2022-08-21T03:46:05;23.50;;;11.82;;
12587;SDS011;6359;51.450;7.346;2022-08-21T03:48:33;17.42;;;10.40;;
12587;SDS011;6359;51.450;7.346;2022-08-21T03:51:01;14.18;;;10.63;;
12587;SDS011;6359;51.450;7.346;2022-08-21T03:53:29;18.95;;;11.00;;
12587;SDS011;6359;51.450;7.346;2022-08-21T03:55:56;13.88;;;9.93;;
12587;SDS011;6359;51.450;7.346;2022-08-21T03:58:25;21.50;;;10.95;;
12587;SDS011;6359;51.450;7.346;2022-08-21T04:00:53;19.05;;;10.75;;
12587;SDS011;6359;51.450;7.346;2022-08-21T04:03:22;14.10;;;10.18;;
12587;SDS011;6359;51.450;7.346;2022-08-21T04:05:49;16.52;;;10.63;;
12587;SDS011;6359;51.450;7.346;2022-08-21T04:08:17;17.88;;;11.20;;
12587;SDS011;6359;51.450;7.346;2022-08-21T04:10:45;12.80;;;10.48;;
12587;SDS011;6359;51.450;7.346;2022-08-21T04:13:14;16.33;;;10.88;;
12587;SDS011;6359;51.450;7.346;2022-08-21T04:15:43;19.95;;;11.30;;
12587;SDS011;6359;51.450;7.346;2022-08-21T04:18:10;21.60;;;12.35;;
12587;SDS011;6359;51.450;7.346;2022-08-21T04:20:37;18.05;;;11.15;;
12587;SDS011;6359;51.450;7.346;2022-08-21T04:23:05;19.60;;;11.80;;
12587;SDS011;6359;51.450;7.346;2022-08-21T04:25:32;18.33;;;11.43;;
12587;SDS011;6359;51.450;7.346;2022-08-21T04:28:00;15.90;;;10.80;;
12587;SDS011;6359;51.450;7.346;2022-08-21T04:30:27;16.42;;;11.18;;
12587;SDS011;6359;51.450;7.346;2022-08-21T04:32:56;19.17;;;11.68;;
12587;SDS011;6359;51.450;7.346;2022-08-21T04:35:25;27.35;;;11.85;;
12587;SDS011;6359;51.450;7.346;2022-08-21T04:37:53;18.13;;;11.07;;
12587;SDS011;6359;51.450;7.346;2022-08-21T04:40:20;16.95;;;10.05;;
12587;SDS011;6359;51.450;7.346;2022-08-21T04:42:49;17.90;;;11.88;;
12587;SDS011;6359;51.450;7.346;2022-08-21T04:45:19;18.02;;;10.77;;
12587;SDS011;6359;51.450;7.346;2022-08-21T04:47:49;18.30;;;10.95;;
12587;SDS011;6359;51.450;7.346;2022-08-21T04:50:18;19.20;;;11.25;;
12587;SDS011;6359;51.450;7.346;2022-08-21T04:52:45;18.83;;;10.68;;
12587;SDS011;6359;51.450;7.346;2022-08-21T04:55:13;22.65;;;12.32;;
12587;SDS011;6359;51.450;7.346;2022-08-21T04:57:41;16.15;;;10.82;;
12587;SDS011;6359;51.450;7.346;2022-08-21T05:00:09;17.23;;;10.57;;
12587;SDS011;6359;51.450;7.346;2022-08-21T05:02:38;18.05;;;10.73;;
12587;SDS011;6359;51.450;7.346;2022-08-21T05:05:06;14.90;;;10.90;;
12587;SDS011;6359;51.450;7.346;2022-08-21T05:07:36;21.75;;;10.45;;
12587;SDS011;6359;51.450;7.346;2022-08-21T05:10:04;22.88;;;11.70;;
12587;SDS011;6359;51.450;7.346;2022-08-21T05:12:32;22.40;;;11.20;;
12587;SDS011;6359;51.450;7.346;2022-08-21T05:15:00;20.33;;;11.25;;
12587;SDS011;6359;51.450;7.346;2022-08-21T05:17:27;16.25;;;10.40;;
12587;SDS011;6359;51.450;7.346;2022-08-21T05:19:55;25.23;;;10.50;;
12587;SDS011;6359;51.450;7.346;2022-08-21T05:22:22;16.38;;;10.43;;
12587;SDS011;6359;51.450;7.346;2022-08-21T05:24:51;15.23;;;9.80;;
12587;SDS011;6359;51.450;7.346;2022-08-21T05:27:19;15.45;;;9.60;;
12587;SDS011;6359;51.450;7.346;2022-08-21T05:29:46;16.85;;;11.05;;
12587;SDS011;6359;51.450;7.346;2022-08-21T05:32:13;15.18;;;10.50;;
12587;SDS011;6359;51.450;7.346;2022-08-21T05:34:40;16.85;;;9.30;;
12587;SDS011;6359;51.450;7.346;2022-08-21T05:37:10;17.63;;;9.65;;
12587;SDS011;6359;51.450;7.346;2022-08-21T05:39:38;16.85;;;9.10;;
12587;SDS011;6359;51.450;7.346;2022-08-21T05:42:07;19.15;;;8.60;;
12587;SDS011;6359;51.450;7.346;2022-08-21T05:44:34;12.93;;;8.15;;
12587;SDS011;6359;51.450;7.346;2022-08-21T05:47:04;17.65;;;8.50;;
12587;SDS011;6359;51.450;7.346;2022-08-21T05:49:32;11.77;;;7.05;;
12587;SDS011;6359;51.450;7.346;2022-08-21T05:52:00;9.07;;;6.53;;
12587;SDS011;6359;51.450;7.346;2022-08-21T05:54:28;11.30;;;7.30;;
12587;SDS011;6359;51.450;7.346;2022-08-21T05:56:56;15.27;;;7.32;;
12587;SDS011;6359;51.450;7.346;2022-08-21T05:59:24;10.90;;;6.53;;
12587;SDS011;6359;51.450;7.346;2022-08-21T06:01:52;10.38;;;6.68;;
12587;SDS011;6359;51.450;7.346;2022-08-21T06:04:19;9.98;;;6.55;;
12587;SDS011;6359;51.450;7.346;2022-08-21T06:06:46;9.35;;;5.95;;
12587;SDS011;6359;51.450;7.346;2022-08-21T06:09:13;9.45;;;6.18;;
12587;SDS011;6359;51.450;7.346;2022-08-21T06:11:41;14.93;;;6.88;;
12587;SDS011;6359;51.450;7.346;2022-08-21T06:14:08;17.55;;;7.10;;
12587;SDS011;6359;51.450;7.346;2022-08-21T06:16:36;8.55;;;5.40;;
12587;SDS011;6359;51.450;7.346;2022-08-21T06:19:03;12.13;;;4.93;;
12587;SDS011;6359;51.450;7.346;2022-08-21T06:21:30;13.50;;;4.75;;
12587;SDS011;6359;51.450;7.346;2022-08-21T06:23:57;10.65;;;4.15;;
12587;SDS011;6359;51.450;7.346;2022-08-21T06:26:25;9.38;;;4.00;;
12587;SDS011;6359;51.450;7.346;2022-08-21T06:28:53;7.25;;;3.85;;
12587;SDS011;6359;51.450;7.346;2022-08-21T06:31:21;8.57;;;3.63;;
12587;SDS011;6359;51.450;7.346;2022-08-21T06:33:51;7.18;;;3.40;;
12587;SDS011;6359;51.450;7.346;2022-08-21T06:36:19;9.07;;;3.95;;
12587;SDS011;6359;51.450;7.346;2022-08-21T06:38:46;11.45;;;3.47;;
12587;SDS011;6359;51.450;7.346;2022-08-21T06:41:14;8.75;;;3.45;;
12587;SDS011;6359;51.450;7.346;2022-08-21T06:43:41;13.98;;;4.13;;
12587;SDS011;6359;51.450;7.346;2022-08-21T06:46:08;8.43;;;3.58;;
12587;SDS011;6359;51.450;7.346;2022-08-21T06:48:35;10.45;;;3.70;;
12587;SDS011;6359;51.450;7.346;2022-08-21T06:51:03;7.00;;;3.70;;
12587;SDS011;6359;51.450;7.346;2022-08-21T06:53:31;8.25;;;3.90;;
12587;SDS011;6359;51.450;7.346;2022-08-21T06:55:58;7.78;;;3.70;;
12587;SDS011;6359;51.450;7.346;2022-08-21T06:58:25;12.50;;;3.58;;
12587;SDS011;6359;51.450;7.346;2022-08-21T07:00:52;7.90;;;3.90;;
12587;SDS011;6359;51.450;7.346;2022-08-21T07:03:21;11.32;;;4.70;;
12587;SDS011;6359;51.450;7.346;2022-08-21T07:05:50;7.38;;;4.15;;
12587;SDS011;6359;51.450;7.346;2022-08-21T07:08:19;8.98;;;4.30;;
12587;SDS011;6359;51.450;7.346;2022-08-21T07:10:47;14.60;;;4.93;;
12587;SDS011;6359;51.450;7.346;2022-08-21T07:13:15;8.82;;;4.70;;
12587;SDS011;6359;51.450;7.346;2022-08-21T07:15:42;8.40;;;4.55;;
12587;SDS011;6359;51.450;7.346;2022-08-21T07:18:11;12.15;;;4.40;;
12587;SDS011;6359;51.450;7.346;2022-08-21T07:20:38;13.43;;;5.30;;
12587;SDS011;6359;51.450;7.346;2022-08-21T07:23:06;10.45;;;4.97;;
12587;SDS011;6359;51.450;7.346;2022-08-21T07:25:38;10.07;;;4.93;;
12587;SDS011;6359;51.450;7.346;2022-08-21T07:28:05;9.30;;;4.95;;
12587;SDS011;6359;51.450;7.346;2022-08-21T07:30:32;10.40;;;4.80;;
12587;SDS011;6359;51.450;7.346;2022-08-21T07:32:59;9.55;;;4.97;;
12587;SDS011;6359;51.450;7.346;2022-08-21T07:35:26;13.73;;;5.90;;
12587;SDS011;6359;51.450;7.346;2022-08-21T07:37:56;12.73;;;5.50;;
12587;SDS011;6359;51.450;7.346;2022-08-21T07:40:23;13.00;;;5.32;;
12587;SDS011;6359;51.450;7.346;2022-08-21T07:42:51;11.00;;;5.28;;
12587;SDS011;6359;51.450;7.346;2022-08-21T07:45:19;9.63;;;4.93;;
12587;SDS011;6359;51.450;7.346;2022-08-21T07:47:49;9.60;;;5.18;;
12587;SDS011;6359;51.450;7.346;2022-08-21T07:50:18;11.02;;;5.10;;
12587;SDS011;6359;51.450;7.346;2022-08-21T07:52:45;14.15;;;5.60;;
12587;SDS011;6359;51.450;7.346;2022-08-21T07:55:13;15.05;;;4.82;;
12587;SDS011;6359;51.450;7.346;2022-08-21T07:57:43;10.52;;;4.97;;
12587;SDS011;6359;51.450;7.346;2022-08-21T08:00:13;15.15;;;4.47;;
12587;SDS011;6359;51.450;7.346;2022-08-21T08:02:43;10.10;;;4.38;;
12587;SDS011;6359;51.450;7.346;2022-08-21T08:05:11;11.35;;;4.60;;
12587;SDS011;6359;51.450;7.346;2022-08-21T08:07:39;10.18;;;3.88;;
12587;SDS011;6359;51.450;7.346;2022-08-21T08:10:06;11.48;;;4.20;;
12587;SDS011;6359;51.450;7.346;2022-08-21T08:12:35;12.75;;;3.97;;
12587;SDS011;6359;51.450;7.346;2022-08-21T08:15:03;8.57;;;3.40;;
12587;SDS011;6359;51.450;7.346;2022-08-21T08:17:33;7.43;;;3.20;;
12587;SDS011;6359;51.450;7.346;2022-08-21T08:20:03;8.02;;;3.00;;
12587;SDS011;6359;51.450;7.346;2022-08-21T08:22:30;8.07;;;3.00;;
12587;SDS011;6359;51.450;7.346;2022-08-21T08:24:57;8.15;;;2.75;;
12587;SDS011;6359;51.450;7.346;2022-08-21T08:27:24;6.82;;;2.60;;
12587;SDS011;6359;51.450;7.346;2022-08-21T08:29:51;5.65;;;2.22;;
12587;SDS011;6359;51.450;7.346;2022-08-21T08:32:19;6.57;;;2.25;;
12587;SDS011;6359;51.450;7.346;2022-08-21T08:34:48;10.25;;;2.85;;
12587;SDS011;6359;51.450;7.346;2022-08-21T08:37:17;5.63;;;2.30;;
12587;SDS011;6359;51.450;7.346;2022-08-21T08:39:46;9.57;;;2.72;;
12587;SDS011;6359;51.450;7.346;2022-08-21T08:42:14;5.88;;;2.22;;
12587;SDS011;6359;51.450;7.346;2022-08-21T08:44:44;8.18;;;2.55;;
12587;SDS011;6359;51.450;7.346;2022-08-21T08:47:13;5.88;;;2.40;;
12587;SDS011;6359;51.450;7.346;2022-08-21T08:49:53;10.27;;;3.25;;
12587;SDS011;6359;51.450;7.346;2022-08-21T08:52:29;5.97;;;2.25;;
12587;SDS011;6359;51.450;7.346;2022-08-21T08:55:00;6.20;;;2.25;;
12587;SDS011;6359;51.450;7.346;2022-08-21T08:57:30;8.43;;;2.22;;
12587;SDS011;6359;51.450;7.346;2022-08-21T08:59:59;9.32;;;2.83;;
12587;SDS011;6359;51.450;7.346;2022-08-21T09:02:31;4.93;;;2.17;;
12587;SDS011;6359;51.450;7.346;2022-08-21T09:05:00;3.17;;;1.90;;
12587;SDS011;6359;51.450;7.346;2022-08-21T09:07:30;8.05;;;2.88;;
12587;SDS011;6359;51.450;7.346;2022-08-21T09:10:09;7.07;;;2.45;;
12587;SDS011;6359;51.450;7.346;2022-08-21T09:12:45;6.88;;;2.35;;
12587;SDS011;6359;51.450;7.346;2022-08-21T09:15:20;9.35;;;2.58;;
12587;SDS011;6359;51.450;7.346;2022-08-21T09:17:57;6.75;;;2.38;;
12587;SDS011;6359;51.450;7.346;2022-08-21T09:20:36;6.82;;;1.90;;
12587;SDS011;6359;51.450;7.346;2022-08-21T09:23:09;6.65;;;2.35;;
12587;SDS011;6359;51.450;7.346;2022-08-21T09:25:46;5.25;;;1.95;;
12587;SDS011;6359;51.450;7.346;2022-08-21T09:28:20;10.95;;;2.78;;
12587;SDS011;6359;51.450;7.346;2022-08-21T09:30:47;11.88;;;2.47;;
12587;SDS011;6359;51.450;7.346;2022-08-21T09:33:15;7.63;;;2.45;;
12587;SDS011;6359;51.450;7.346;2022-08-21T09:35:52;8.23;;;2.75;;
12587;SDS011;6359;51.450;7.346;2022-08-21T09:38:27;9.98;;;2.75;;
12587;SDS011;6359;51.450;7.346;2022-08-21T09:40:59;8.73;;;2.85;;
12587;SDS011;6359;51.450;7.346;2022-08-21T09:43:28;6.07;;;2.60;;
12587;SDS011;6359;51.450;7.346;2022-08-21T09:46:03;8.65;;;2.83;;
12587;SDS011;6359;51.450;7.346;2022-08-21T09:48:39;6.55;;;2.55;;
12587;SDS011;6359;51.450;7.346;2022-08-21T09:51:11;9.52;;;2.63;;
12587;SDS011;6359;51.450;7.346;2022-08-21T09:53:43;6.75;;;2.22;;
12587;SDS011;6359;51.450;7.346;2022-08-21T09:56:18;7.25;;;2.22;;
12587;SDS011;6359;51.450;7.346;2022-08-21T09:59:13;4.75;;;2.25;;
12587;SDS011;6359;51.450;7.346;2022-08-21T10:01:42;9.18;;;2.58;;
12587;SDS011;6359;51.450;7.346;2022-08-21T10:04:11;6.10;;;2.17;;
12587;SDS011;6359;51.450;7.346;2022-08-21T10:06:40;4.68;;;2.00;;
12587;SDS011;6359;51.450;7.346;2022-08-21T10:09:09;7.72;;;2.80;;
12587;SDS011;6359;51.450;7.346;2022-08-21T10:11:38;7.22;;;2.30;;
12587;SDS011;6359;51.450;7.346;2022-08-21T10:14:10;6.50;;;2.33;;
12587;SDS011;6359;51.450;7.346;2022-08-21T10:16:46;9.77;;;3.28;;
12587;SDS011;6359;51.450;7.346;2022-08-21T10:19:26;4.75;;;2.30;;
12587;SDS011;6359;51.450;7.346;2022-08-21T10:22:05;6.05;;;1.98;;
12587;SDS011;6359;51.450;7.346;2022-08-21T10:24:44;6.82;;;2.45;;
12587;SDS011;6359;51.450;7.346;2022-08-21T10:27:20;4.47;;;2.13;;
12587;SDS011;6359;51.450;7.346;2022-08-21T10:29:55;6.72;;;2.55;;
12587;SDS011;6359;51.450;7.346;2022-08-21T10:32:32;11.80;;;3.35;;
12587;SDS011;6359;51.450;7.346;2022-08-21T10:35:22;5.45;;;2.10;;
12587;SDS011;6359;51.450;7.346;2022-08-21T10:38:03;7.00;;;2.30;;
12587;SDS011;6359;51.450;7.346;2022-08-21T10:40:54;11.30;;;2.15;;
12587;SDS011;6359;51.450;7.346;2022-08-21T10:43:28;7.95;;;2.15;;
12587;SDS011;6359;51.450;7.346;2022-08-21T10:46:04;5.45;;;1.98;;
12587;SDS011;6359;51.450;7.346;2022-08-21T10:48:54;7.28;;;2.30;;
12587;SDS011;6359;51.450;7.346;2022-08-21T10:51:26;7.15;;;2.17;;
12587;SDS011;6359;51.450;7.346;2022-08-21T10:54:03;5.30;;;1.95;;
12587;SDS011;6359;51.450;7.346;2022-08-21T10:56:35;6.93;;;1.60;;
12587;SDS011;6359;51.450;7.346;2022-08-21T10:59:23;7.32;;;1.92;;
12587;SDS011;6359;51.450;7.346;2022-08-21T11:01:56;6.25;;;1.77;;
12587;SDS011;6359;51.450;7.346;2022-08-21T11:04:28;4.85;;;2.10;;
12587;SDS011;6359;51.450;7.346;2022-08-21T11:07:02;7.18;;;2.00;;
12587;SDS011;6359;51.450;7.346;2022-08-21T11:09:36;6.65;;;1.85;;
12587;SDS011;6359;51.450;7.346;2022-08-21T11:12:05;4.55;;;1.60;;
12587;SDS011;6359;51.450;7.346;2022-08-21T11:14:46;8.85;;;2.00;;
12587;SDS011;6359;51.450;7.346;2022-08-21T11:17:19;3.08;;;1.58;;
12587;SDS011;6359;51.450;7.346;2022-08-21T11:19:58;5.50;;;1.67;;
12587;SDS011;6359;51.450;7.346;2022-08-21T11:22:33;5.22;;;1.33;;
12587;SDS011;6359;51.450;7.346;2022-08-21T11:25:06;6.35;;;1.58;;
12587;SDS011;6359;51.450;7.346;2022-08-21T11:27:42;3.88;;;1.70;;
12587;SDS011;6359;51.450;7.346;2022-08-21T11:30:12;3.47;;;1.52;;
12587;SDS011;6359;51.450;7.346;2022-08-21T11:32:50;4.88;;;1.80;;
12587;SDS011;6359;51.450;7.346;2022-08-21T11:35:32;7.72;;;1.55;;
12587;SDS011;6359;51.450;7.346;2022-08-21T11:38:08;3.65;;;1.63;;
12587;SDS011;6359;51.450;7.346;2022-08-21T11:41:03;5.85;;;1.60;;
12587;SDS011;6359;51.450;7.346;2022-08-21T11:43:38;7.25;;;2.55;;
12587;SDS011;6359;51.450;7.346;2022-08-21T11:46:14;4.38;;;1.90;;
12587;SDS011;6359;51.450;7.346;2022-08-21T11:48:53;4.40;;;1.70;;
12587;SDS011;6359;51.450;7.346;2022-08-21T11:51:33;2.95;;;1.30;;
12587;SDS011;6359;51.450;7.346;2022-08-21T11:54:06;4.97;;;1.60;;
12587;SDS011;6359;51.450;7.346;2022-08-21T11:56:53;3.13;;;1.80;;
12587;SDS011;6359;51.450;7.346;2022-08-21T11:59:34;3.90;;;1.42;;
12587;SDS011;6359;51.450;7.346;2022-08-21T12:02:09;2.30;;;1.45;;
12587;SDS011;6359;51.450;7.346;2022-08-21T12:04:44;3.25;;;1.60;;
12587;SDS011;6359;51.450;7.346;2022-08-21T12:07:15;3.65;;;1.55;;
12587;SDS011;6359;51.450;7.346;2022-08-21T12:09:51;3.80;;;1.75;;
12587;SDS011;6359;51.450;7.346;2022-08-21T12:12:25;5.45;;;2.08;;
12587;SDS011;6359;51.450;7.346;2022-08-21T12:15:04;4.75;;;1.50;;
12587;SDS011;6359;51.450;7.346;2022-08-21T12:17:52;6.13;;;1.45;;
12587;SDS011;6359;51.450;7.346;2022-08-21T12:20:26;2.35;;;1.60;;
12587;SDS011;6359;51.450;7.346;2022-08-21T12:23:15;2.80;;;1.40;;
12587;SDS011;6359;51.450;7.346;2022-08-21T12:26:03;4.20;;;1.65;;
12587;SDS011;6359;51.450;7.346;2022-08-21T12:28:41;5.35;;;1.48;;
12587;SDS011;6359;51.450;7.346;2022-08-21T12:31:17;3.10;;;1.40;;
12587;SDS011;6359;51.450;7.346;2022-08-21T12:33:49;4.13;;;1.40;;
12587;SDS011;6359;51.450;7.346;2022-08-21T12:36:23;3.28;;;1.30;;
12587;SDS011;6359;51.450;7.346;2022-08-21T12:38:56;2.88;;;1.40;;
12587;SDS011;6359;51.450;7.346;2022-08-21T12:41:28;3.10;;;1.23;;
12587;SDS011;6359;51.450;7.346;2022-08-21T12:44:00;4.18;;;1.13;;
12587;SDS011;6359;51.450;7.346;2022-08-21T12:46:34;5.82;;;1.63;;
12587;SDS011;6359;51.450;7.346;2022-08-21T12:49:08;2.65;;;1.10;;
12587;SDS011;6359;51.450;7.346;2022-08-21T12:51:49;4.32;;;1.60;;
12587;SDS011;6359;51.450;7.346;2022-08-21T12:54:24;1.95;;;1.13;;
12587;SDS011;6359;51.450;7.346;2022-08-21T12:56:57;2.60;;;1.00;;
12587;SDS011;6359;51.450;7.346;2022-08-21T12:59:27;1.50;;;0.98;;
12587;SDS011;6359;51.450;7.346;2022-08-21T13:01:55;5.78;;;1.60;;
12587;SDS011;6359;51.450;7.346;2022-08-21T13:04:27;3.10;;;1.48;;
12587;SDS011;6359;51.450;7.346;2022-08-21T13:07:01;5.63;;;2.88;;
12587;SDS011;6359;51.450;7.346;2022-08-21T13:09:36;4.93;;;2.08;;
12587;SDS011;6359;51.450;7.346;2022-08-21T13:12:08;2.35;;;1.38;;
12587;SDS011;6359;51.450;7.346;2022-08-21T13:14:37;2.60;;;1.30;;
12587;SDS011;6359;51.450;7.346;2022-08-21T13:17:06;2.47;;;1.00;;
12587;SDS011;6359;51.450;7.346;2022-08-21T13:19:34;4.88;;;1.65;;
12587;SDS011;6359;51.450;7.346;2022-08-21T13:22:01;4.38;;;1.20;;
12587;SDS011;6359;51.450;7.346;2022-08-21T13:24:30;3.00;;;1.10;;
12587;SDS011;6359;51.450;7.346;2022-08-21T13:26:59;3.05;;;1.13;;
12587;SDS011;6359;51.450;7.346;2022-08-21T13:29:28;2.22;;;1.17;;
12587;SDS011;6359;51.450;7.346;2022-08-21T13:31:58;2.58;;;1.50;;
12587;SDS011;6359;51.450;7.346;2022-08-21T13:34:29;4.93;;;1.40;;
12587;SDS011;6359;51.450;7.346;2022-08-21T13:36:59;3.33;;;1.17;;
12587;SDS011;6359;51.450;7.346;2022-08-21T13:39:29;2.00;;;1.05;;
12587;SDS011;6359;51.450;7.346;2022-08-21T13:41:57;1.95;;;1.05;;
12587;SDS011;6359;51.450;7.346;2022-08-21T13:44:31;2.92;;;1.00;;
12587;SDS011;6359;51.450;7.346;2022-08-21T13:47:02;3.53;;;1.45;;
12587;SDS011;6359;51.450;7.346;2022-08-21T13:49:32;3.58;;;1.23;;
12587;SDS011;6359;51.450;7.346;2022-08-21T13:52:01;1.80;;;1.15;;
12587;SDS011;6359;51.450;7.346;2022-08-21T13:54:32;2.03;;;0.95;;
12587;SDS011;6359;51.450;7.346;2022-08-21T13:57:00;1.50;;;1.05;;
12587;SDS011;6359;51.450;7.346;2022-08-21T13:59:28;3.60;;;1.30;;
12587;SDS011;6359;51.450;7.346;2022-08-21T14:01:57;5.38;;;1.30;;
12587;SDS011;6359;51.450;7.346;2022-08-21T14:04:32;4.55;;;1.20;;
12587;SDS011;6359;51.450;7.346;2022-08-21T14:07:03;3.03;;;1.50;;
12587;SDS011;6359;51.450;7.346;2022-08-21T14:09:43;3.45;;;1.48;;
12587;SDS011;6359;51.450;7.346;2022-08-21T14:12:12;3.65;;;1.58;;
12587;SDS011;6359;51.450;7.346;2022-08-21T14:14:41;2.55;;;1.10;;
12587;SDS011;6359;51.450;7.346;2022-08-21T14:17:09;7.38;;;1.15;;
12587;SDS011;6359;51.450;7.346;2022-08-21T14:19:42;3.63;;;1.25;;
12587;SDS011;6359;51.450;7.346;2022-08-21T14:22:27;3.10;;;1.20;;
12587;SDS011;6359;51.450;7.346;2022-08-21T14:25:01;4.32;;;1.45;;
12587;SDS011;6359;51.450;7.346;2022-08-21T14:27:31;2.05;;;1.02;;
12587;SDS011;6359;51.450;7.346;2022-08-21T14:30:00;4.22;;;1.70;;
12587;SDS011;6359;51.450;7.346;2022-08-21T14:32:38;3.45;;;1.38;;
12587;SDS011;6359;51.450;7.346;2022-08-21T14:35:07;2.92;;;1.42;;
12587;SDS011;6359;51.450;7.346;2022-08-21T14:37:35;2.17;;;1.52;;
12587;SDS011;6359;51.450;7.346;2022-08-21T14:40:03;2.28;;;1.15;;
12587;SDS011;6359;51.450;7.346;2022-08-21T14:42:31;2.03;;;1.15;;
12587;SDS011;6359;51.450;7.346;2022-08-21T14:45:00;3.72;;;2.25;;
12587;SDS011;6359;51.450;7.346;2022-08-21T14:47:31;1.60;;;1.30;;
12587;SDS011;6359;51.450;7.346;2022-08-21T14:49:58;2.38;;;1.10;;
12587;SDS011;6359;51.450;7.346;2022-08-21T14:52:26;1.58;;;1.10;;
12587;SDS011;6359;51.450;7.346;2022-08-21T14:54:53;2.20;;;0.90;;
12587;SDS011;6359;51.450;7.346;2022-08-21T14:57:20;2.75;;;1.50;;
12587;SDS011;6359;51.450;7.346;2022-08-21T14:59:47;3.60;;;1.10;;
12587;SDS011;6359;51.450;7.346;2022-08-21T15:02:14;4.10;;;1.67;;
12587;SDS011;6359;51.450;7.346;2022-08-21T15:04:41;4.20;;;1.52;;
12587;SDS011;6359;51.450;7.346;2022-08-21T15:07:08;2.53;;;1.48;;
12587;SDS011;6359;51.450;7.346;2022-08-21T15:09:36;3.95;;;1.40;;